createdAt,value
2022-12-04T00:02:16.090Z,22.97
2022-12-04T00:04:43.663Z,20.43
2022-12-04T00:07:12.228Z,22.27
2022-12-04T00:09:39.763Z,22.73
2022-12-04T00:12:08.067Z,23.20
2022-12-04T00:14:49.031Z,21.37
2022-12-04T00:17:03.175Z,21.30
2022-12-04T00:19:30.710Z,25.67
2022-12-04T00:21:59.071Z,24.60
2022-12-04T00:24:26.595Z,24.13
2022-12-04T00:26:54.130Z,24.70
2022-12-04T00:29:21.694Z,22.83
2022-12-04T00:31:49.333Z,22.60
2022-12-04T00:34:17.534Z,23.67
2022-12-04T00:36:45.088Z,23.90
2022-12-04T00:39:12.612Z,22.93
2022-12-04T00:41:40.905Z,24.40
2022-12-04T00:44:09.247Z,22.43
2022-12-04T00:46:36.771Z,21.87
2022-12-04T00:49:04.326Z,20.90
2022-12-04T00:51:31.983Z,23.60
2022-12-04T00:53:59.506Z,24.07
2022-12-04T00:56:27.818Z,22.00
2022-12-04T00:58:55.410Z,24.27
2022-12-04T01:01:23.006Z,23.17
2022-12-04T01:03:50.450Z,20.93
2022-12-04T01:06:26.432Z,23.40
2022-12-04T01:08:53.967Z,23.90
2022-12-04T01:11:21.497Z,25.87
2022-12-04T01:13:49.935Z,24.10
2022-12-04T01:16:20.690Z,24.93
2022-12-04T01:18:48.152Z,25.27
2022-12-04T01:21:15.720Z,22.13
2022-12-04T01:23:43.252Z,24.73
2022-12-04T01:26:10.779Z,21.30
2022-12-04T01:28:40.240Z,22.90
2022-12-04T01:31:11.028Z,18.87
2022-12-04T01:33:38.481Z,21.17
2022-12-04T01:36:07.128Z,24.53
2022-12-04T01:38:34.654Z,20.97
2022-12-04T01:41:02.189Z,20.37
2022-12-04T01:43:30.541Z,21.83
2022-12-04T01:45:58.099Z,21.20
2022-12-04T01:48:28.080Z,22.17
2022-12-04T01:50:55.665Z,24.40
2022-12-04T01:53:23.211Z,24.20
2022-12-04T01:55:50.744Z,24.42
2022-12-04T01:58:18.604Z,25.17
2022-12-04T02:00:50.977Z,21.87
2022-12-04T02:03:14.485Z,23.53
2022-12-04T02:05:43.019Z,21.00
2022-12-04T02:08:10.591Z,19.97
2022-12-04T02:10:51.174Z,20.87
2022-12-04T02:13:21.576Z,21.33
2022-12-04T02:15:55.154Z,20.67
2022-12-04T02:18:35.429Z,19.20
2022-12-04T02:21:03.301Z,16.93
2022-12-04T02:23:52.083Z,17.10
2022-12-04T02:26:23.545Z,19.73
2022-12-04T02:28:56.702Z,20.83
2022-12-04T02:31:24.287Z,19.77
2022-12-04T02:33:55.559Z,19.83
2022-12-04T02:36:23.087Z,24.17
2022-12-04T02:38:59.267Z,20.70
2022-12-04T02:41:26.861Z,22.37
2022-12-04T02:43:54.397Z,20.35
2022-12-04T02:46:30.850Z,18.90
2022-12-04T02:48:58.336Z,19.27
2022-12-04T02:51:26.641Z,17.87
2022-12-04T02:53:54.175Z,19.33
2022-12-04T02:56:25.243Z,19.30
2022-12-04T02:58:52.789Z,19.07
2022-12-04T03:01:20.369Z,18.70
2022-12-04T03:03:51.915Z,16.90
2022-12-04T03:06:19.449Z,17.40
2022-12-04T03:08:47.761Z,20.00
2022-12-04T03:11:15.731Z,16.03
2022-12-04T03:13:48.888Z,18.70
2022-12-04T03:16:17.239Z,16.73
2022-12-04T03:18:47.815Z,18.17
2022-12-04T03:21:15.340Z,18.03
2022-12-04T03:23:49.396Z,20.10
2022-12-04T03:26:16.957Z,18.30
2022-12-04T03:29:08.901Z,19.30
2022-12-04T03:31:39.400Z,19.43
2022-12-04T03:34:06.934Z,21.90
2022-12-04T03:36:35.227Z,18.77
2022-12-04T03:39:08.986Z,18.23
2022-12-04T03:41:55.099Z,17.53
2022-12-04T03:44:28.570Z,20.17
2022-12-04T03:47:05.039Z,18.40
2022-12-04T03:49:44.436Z,18.93
2022-12-04T03:52:17.505Z,23.38
2022-12-04T03:54:48.593Z,16.70
2022-12-04T03:57:18.955Z,17.20
2022-12-04T03:59:55.279Z,19.80
2022-12-04T04:02:16.525Z,18.83
2022-12-04T04:04:44.062Z,19.85
2022-12-04T04:07:11.575Z,18.63
2022-12-04T04:09:39.098Z,19.20
2022-12-04T04:12:09.972Z,18.30
2022-12-04T04:14:58.537Z,15.97
2022-12-04T04:17:44.092Z,18.00
2022-12-04T04:20:33.534Z,17.13
2022-12-04T04:23:19.512Z,18.33
2022-12-04T04:25:47.035Z,18.43
2022-12-04T04:28:29.290Z,16.07
2022-12-04T04:30:56.863Z,17.43
2022-12-04T04:33:24.330Z,18.30
2022-12-04T04:35:55.890Z,16.17
2022-12-04T04:38:26.084Z,18.00
2022-12-04T04:41:02.913Z,16.67
2022-12-04T04:43:33.339Z,17.40
2022-12-04T04:46:06.661Z,16.77
2022-12-04T04:48:40.071Z,17.50
2022-12-04T04:51:07.605Z,17.30
2022-12-04T04:53:37.601Z,18.43
2022-12-04T04:56:05.175Z,18.40
2022-12-04T04:58:32.713Z,19.47
2022-12-04T05:01:02.932Z,17.77
2022-12-04T05:03:30.488Z,20.10
2022-12-04T05:05:58.011Z,19.40
2022-12-04T05:08:25.559Z,21.52
2022-12-04T05:10:53.139Z,20.83
2022-12-04T05:13:20.683Z,16.17
2022-12-04T05:16:03.669Z,18.27
2022-12-04T05:18:31.143Z,19.13
2022-12-04T05:20:58.671Z,19.27
2022-12-04T05:23:26.289Z,17.83
2022-12-04T05:25:53.779Z,16.87
2022-12-04T05:28:21.302Z,17.97
2022-12-04T05:30:49.270Z,17.23
2022-12-04T05:33:16.770Z,19.37
2022-12-04T05:35:44.291Z,19.90
2022-12-04T05:38:12.625Z,18.60
2022-12-04T05:40:40.148Z,18.90
2022-12-04T05:43:07.673Z,18.43
2022-12-04T05:45:35.237Z,19.93
2022-12-04T05:48:02.764Z,19.90
2022-12-04T05:50:30.298Z,18.30
2022-12-04T05:52:58.057Z,17.07
2022-12-04T05:55:25.544Z,18.23
2022-12-04T05:57:53.068Z,17.80
2022-12-04T06:00:21.036Z,18.20
2022-12-04T06:02:48.615Z,17.73
2022-12-04T06:05:16.086Z,20.43
2022-12-04T06:07:43.677Z,18.70
2022-12-04T06:10:11.166Z,17.87
2022-12-04T06:12:38.691Z,23.70
2022-12-04T06:15:06.398Z,18.27
2022-12-04T06:17:33.938Z,20.23
2022-12-04T06:20:06.504Z,21.40
2022-12-04T06:22:29.813Z,20.33
2022-12-04T06:24:57.349Z,19.70
2022-12-04T06:27:27.682Z,19.30
2022-12-04T06:29:52.507Z,19.03
2022-12-04T06:32:22.080Z,19.17
2022-12-04T06:34:47.570Z,20.27
2022-12-04T06:37:15.912Z,18.70
2022-12-04T06:39:43.442Z,17.63
2022-12-04T06:42:10.958Z,18.53
2022-12-04T06:44:39.291Z,18.27
2022-12-04T06:47:06.854Z,18.40
2022-12-04T06:49:34.363Z,18.43
2022-12-04T06:52:02.702Z,19.37
2022-12-04T06:54:30.236Z,18.57
2022-12-04T06:56:57.762Z,18.77
2022-12-04T06:59:25.640Z,16.90
2022-12-04T07:01:53.201Z,20.03
2022-12-04T07:04:20.806Z,21.73
2022-12-04T07:06:48.265Z,18.07
2022-12-04T07:09:15.794Z,19.97
2022-12-04T07:11:43.306Z,17.43
2022-12-04T07:14:12.635Z,15.80
2022-12-04T07:16:41.450Z,17.80
2022-12-04T07:19:07.721Z,19.40
2022-12-04T07:21:36.044Z,18.33
2022-12-04T07:24:03.580Z,19.00
2022-12-04T07:26:31.114Z,17.13
2022-12-04T07:28:59.751Z,18.07
2022-12-04T07:31:27.255Z,19.37
2022-12-04T07:33:54.772Z,18.23
2022-12-04T07:36:22.391Z,20.27
2022-12-04T07:38:49.915Z,20.10
2022-12-04T07:41:17.439Z,17.50
2022-12-04T07:43:45.017Z,23.20
2022-12-04T07:46:12.600Z,20.80
2022-12-04T07:48:40.091Z,19.40
2022-12-04T07:51:08.418Z,19.47
2022-12-04T07:53:35.953Z,19.07
2022-12-04T07:56:03.470Z,17.23
2022-12-04T07:58:31.811Z,18.00
2022-12-04T08:01:08.065Z,20.63
2022-12-04T08:03:35.458Z,19.57
2022-12-04T08:06:04.064Z,18.67
2022-12-04T08:08:31.590Z,22.60
2022-12-04T08:10:59.122Z,18.07
2022-12-04T08:13:26.974Z,19.80
2022-12-04T08:15:54.489Z,22.77
2022-12-04T08:18:22.802Z,19.57
2022-12-04T08:20:50.405Z,20.23
2022-12-04T08:23:17.929Z,18.83
2022-12-04T08:25:45.455Z,20.73
2022-12-04T08:28:13.798Z,22.80
2022-12-04T08:30:41.375Z,20.60
2022-12-04T08:33:08.867Z,24.00
2022-12-04T08:35:36.445Z,22.48
2022-12-04T08:38:03.974Z,20.73
2022-12-04T08:40:31.491Z,19.67
2022-12-04T08:42:59.084Z,19.77
2022-12-04T08:45:27.368Z,20.80
2022-12-04T08:47:54.893Z,20.70
2022-12-04T08:50:22.466Z,20.03
2022-12-04T08:52:50.759Z,20.47
2022-12-04T08:55:18.285Z,20.50
2022-12-04T08:57:46.104Z,18.47
2022-12-04T09:00:13.629Z,19.03
2022-12-04T09:02:41.932Z,22.00
2022-12-04T09:05:09.497Z,22.40
2022-12-04T09:07:37.092Z,22.43
2022-12-04T09:10:05.465Z,20.27
2022-12-04T09:12:33.035Z,23.67
2022-12-04T09:15:00.590Z,21.60
2022-12-04T09:17:28.125Z,24.87
2022-12-04T09:20:00.731Z,23.63
2022-12-04T09:22:23.234Z,20.87
2022-12-04T09:24:50.758Z,22.83
2022-12-04T09:27:18.668Z,22.97
2022-12-04T09:29:46.212Z,22.03
2022-12-04T09:32:13.737Z,20.33
2022-12-04T09:34:44.362Z,21.53
2022-12-04T09:37:10.529Z,21.57
2022-12-04T09:39:38.071Z,22.40
2022-12-04T09:42:30.352Z,19.43
2022-12-04T09:45:06.395Z,19.80
2022-12-04T09:47:42.171Z,19.27
2022-12-04T09:50:21.578Z,18.93
2022-12-04T09:53:04.237Z,21.60
2022-12-04T09:55:40.909Z,20.07
2022-12-04T09:58:08.465Z,23.73
2022-12-04T10:00:36.029Z,18.20
2022-12-04T10:03:06.879Z,19.43
2022-12-04T10:05:42.826Z,20.63
2022-12-04T10:08:10.385Z,24.10
2022-12-04T10:10:40.995Z,22.45
2022-12-04T10:13:36.564Z,21.03
2022-12-04T10:16:12.618Z,19.10
2022-12-04T10:18:42.718Z,17.97
2022-12-04T10:21:16.850Z,20.58
2022-12-04T10:23:59.360Z,20.40
2022-12-04T10:26:26.905Z,24.20
2022-12-04T10:28:55.747Z,20.53
2022-12-04T10:31:22.901Z,17.47
2022-12-04T10:33:54.206Z,18.50
2022-12-04T10:36:21.731Z,19.20
2022-12-04T10:38:51.726Z,16.43
2022-12-04T10:41:24.992Z,20.60
2022-12-04T10:43:52.527Z,20.27
2022-12-04T10:46:26.058Z,15.93
2022-12-04T10:48:53.543Z,20.07
2022-12-04T10:51:21.071Z,18.10
2022-12-04T10:53:51.356Z,16.10
2022-12-04T10:56:19.655Z,18.77
2022-12-04T10:58:58.767Z,18.63
2022-12-04T11:01:27.162Z,18.23
2022-12-04T11:04:00.928Z,16.57
2022-12-04T11:06:28.513Z,17.57
2022-12-04T11:08:56.813Z,17.27
2022-12-04T11:11:24.407Z,21.70
2022-12-04T11:13:52.847Z,17.83
2022-12-04T11:16:23.372Z,18.70
2022-12-04T11:18:50.843Z,21.17
2022-12-04T11:21:18.404Z,22.10
2022-12-04T11:23:45.949Z,22.97
2022-12-04T11:26:13.484Z,21.57
2022-12-04T11:28:42.862Z,19.80
2022-12-04T11:31:09.669Z,20.03
2022-12-04T11:33:49.982Z,18.47
2022-12-04T11:36:27.060Z,20.70
2022-12-04T11:38:55.399Z,19.47
2022-12-04T11:41:25.434Z,19.13
2022-12-04T11:43:56.711Z,23.58
2022-12-04T11:46:20.578Z,21.48
2022-12-04T11:48:48.078Z,19.80
2022-12-04T11:51:33.484Z,19.17
2022-12-04T11:54:03.804Z,19.90
2022-12-04T11:56:34.117Z,20.23
2022-12-04T11:59:13.682Z,20.88
2022-12-04T12:02:15.100Z,23.00
2022-12-04T12:04:42.614Z,52.67
2022-12-04T12:07:19.659Z,49.47
2022-12-04T12:09:57.339Z,19.13
2022-12-04T12:12:42.908Z,23.00
2022-12-04T12:15:19.472Z,22.97
2022-12-04T12:17:52.844Z,38.10
2022-12-04T12:20:42.346Z,18.73
2022-12-04T12:23:18.604Z,20.30
2022-12-04T12:25:57.936Z,16.07
2022-12-04T12:28:34.194Z,18.40
2022-12-04T12:31:20.445Z,16.77
2022-12-04T12:33:50.404Z,15.93
2022-12-04T12:36:17.939Z,17.57
2022-12-04T12:38:52.039Z,18.87
2022-12-04T12:41:22.262Z,17.20
2022-12-04T12:43:49.797Z,17.40
2022-12-04T12:46:23.181Z,18.17
2022-12-04T12:49:11.530Z,18.93
2022-12-04T12:51:48.182Z,17.93
2022-12-04T12:54:33.558Z,16.50
2022-12-04T12:57:01.427Z,21.17
2022-12-04T12:59:28.968Z,16.30
2022-12-04T13:02:09.352Z,19.10
2022-12-04T13:04:39.668Z,15.53
2022-12-04T13:07:20.416Z,18.92
2022-12-04T13:09:56.913Z,17.07
2022-12-04T13:12:24.180Z,16.50
2022-12-04T13:14:51.754Z,17.80
2022-12-04T13:17:19.279Z,16.50
2022-12-04T13:19:49.521Z,18.12
2022-12-04T13:22:38.392Z,16.93
2022-12-04T13:25:11.461Z,17.30
2022-12-04T13:27:50.929Z,19.73
2022-12-04T13:30:20.905Z,16.50
2022-12-04T13:32:48.439Z,15.87
2022-12-04T13:35:31.179Z,15.47
2022-12-04T13:38:01.318Z,18.80
2022-12-04T13:40:34.487Z,15.03
2022-12-04T13:43:17.904Z,19.13
2022-12-04T13:45:45.506Z,16.10
2022-12-04T13:48:13.742Z,17.87
2022-12-04T13:50:41.611Z,20.97
2022-12-04T13:53:09.147Z,17.03
2022-12-04T13:55:37.439Z,18.50
2022-12-04T13:58:11.066Z,16.13
2022-12-04T14:00:38.585Z,17.80
2022-12-04T14:03:06.889Z,17.10
2022-12-04T14:05:40.556Z,18.08
2022-12-04T14:08:08.898Z,17.43
2022-12-04T14:10:36.403Z,21.40
2022-12-04T14:13:12.794Z,18.73
2022-12-04T14:15:40.356Z,22.50
2022-12-04T14:18:13.580Z,18.70
2022-12-04T14:20:41.163Z,16.97
2022-12-04T14:23:18.573Z,23.77
2022-12-04T14:25:46.147Z,19.07
2022-12-04T14:28:13.682Z,19.47
2022-12-04T14:30:42.037Z,18.20
2022-12-04T14:33:18.164Z,16.80
2022-12-04T14:35:48.644Z,19.33
2022-12-04T14:38:19.545Z,22.13
2022-12-04T14:40:49.788Z,23.17
2022-12-04T14:43:17.323Z,18.47
2022-12-04T14:45:44.891Z,23.57
2022-12-04T14:48:18.260Z,25.50
2022-12-04T14:50:54.735Z,24.27
2022-12-04T14:53:44.159Z,24.07
2022-12-04T14:56:30.740Z,26.43
2022-12-04T14:58:58.310Z,30.93
2022-12-04T15:01:30.124Z,29.00
2022-12-04T15:03:56.780Z,28.53
2022-12-04T15:06:27.127Z,27.03
2022-12-04T15:09:15.466Z,25.43
2022-12-04T15:12:07.039Z,24.33
2022-12-04T15:14:49.311Z,26.50
2022-12-04T15:17:18.539Z,29.17
2022-12-04T15:19:46.106Z,26.83
2022-12-04T15:22:23.287Z,32.27
2022-12-04T15:24:50.812Z,27.03
2022-12-04T15:27:19.105Z,28.33
2022-12-04T15:29:46.669Z,26.63
2022-12-04T15:32:14.195Z,26.70
2022-12-04T15:34:44.653Z,27.63
2022-12-04T15:37:22.585Z,24.63
2022-12-04T15:39:52.482Z,30.95
2022-12-04T15:42:17.633Z,27.20
2022-12-04T15:45:02.954Z,29.77
2022-12-04T15:47:30.477Z,40.33
2022-12-04T15:50:16.171Z,37.25
2022-12-04T15:52:50.446Z,33.53
2022-12-04T15:55:17.995Z,29.63
2022-12-04T15:57:45.555Z,29.58
2022-12-04T16:00:22.300Z,28.40
2022-12-04T16:02:50.166Z,25.93
2022-12-04T16:05:20.604Z,26.97
2022-12-04T16:07:51.043Z,24.53
2022-12-04T16:10:31.360Z,26.13
2022-12-04T16:12:59.653Z,24.43
2022-12-04T16:15:27.178Z,27.33
2022-12-04T16:17:55.099Z,24.33
2022-12-04T16:20:22.631Z,25.90
2022-12-04T16:22:50.155Z,26.63
2022-12-04T16:25:17.721Z,25.43
2022-12-04T16:27:45.246Z,30.17
2022-12-04T16:30:12.818Z,26.27
2022-12-04T16:32:40.363Z,26.07
2022-12-04T16:35:08.036Z,22.83
2022-12-04T16:37:35.560Z,24.67
2022-12-04T16:40:03.125Z,25.23
2022-12-04T16:42:30.650Z,23.97
2022-12-04T16:44:59.153Z,26.97
2022-12-04T16:47:26.507Z,29.75
2022-12-04T16:49:54.044Z,25.47
2022-12-04T16:52:22.334Z,26.97
2022-12-04T16:54:49.910Z,29.00
2022-12-04T16:57:17.444Z,30.47
2022-12-04T16:59:45.757Z,28.77
2022-12-04T17:02:16.491Z,28.20
2022-12-04T17:04:43.996Z,26.53
2022-12-04T17:07:11.532Z,27.47
2022-12-04T17:09:39.124Z,26.77
2022-12-04T17:12:06.613Z,27.57
2022-12-04T17:14:34.135Z,26.83
2022-12-04T17:17:02.497Z,27.80
2022-12-04T17:19:30.041Z,26.83
2022-12-04T17:21:57.625Z,25.03
2022-12-04T17:24:25.199Z,25.50
2022-12-04T17:26:53.502Z,32.20
2022-12-04T17:29:21.031Z,27.30
2022-12-04T17:31:49.397Z,29.27
2022-12-04T17:34:16.874Z,28.07
2022-12-04T17:36:45.211Z,26.93
2022-12-04T17:39:12.752Z,29.00
2022-12-04T17:41:40.287Z,29.57
2022-12-04T17:44:07.821Z,24.37
2022-12-04T17:46:36.213Z,28.13
2022-12-04T17:49:06.990Z,24.80
2022-12-04T17:51:31.212Z,27.83
2022-12-04T17:53:59.822Z,29.60
2022-12-04T17:56:27.367Z,27.03
2022-12-04T17:58:55.659Z,27.13
2022-12-04T18:01:23.651Z,29.03
2022-12-04T18:03:53.751Z,22.63
2022-12-04T18:06:24.357Z,26.03
2022-12-04T18:08:52.700Z,26.73
2022-12-04T18:11:20.245Z,26.17
2022-12-04T18:13:47.760Z,31.15
2022-12-04T18:16:16.244Z,29.87
2022-12-04T18:18:43.636Z,33.30
2022-12-04T18:21:11.171Z,29.02
2022-12-04T18:23:38.735Z,26.60
2022-12-04T18:26:06.273Z,31.13
2022-12-04T18:28:34.563Z,27.83
2022-12-04T18:31:03.044Z,30.40
2022-12-04T18:33:30.578Z,27.33
2022-12-04T18:35:58.862Z,30.93
2022-12-04T18:38:27.204Z,25.37
2022-12-04T18:40:54.776Z,26.43
2022-12-04T18:43:22.306Z,27.10
2022-12-04T18:45:49.931Z,27.37
2022-12-04T18:48:17.429Z,27.53
2022-12-04T18:50:44.955Z,33.47
2022-12-04T18:53:12.530Z,24.90
2022-12-04T18:55:40.067Z,25.43
2022-12-04T18:58:07.588Z,25.60
2022-12-04T19:00:36.672Z,22.90
2022-12-04T19:03:04.174Z,27.47
2022-12-04T19:05:31.699Z,23.33
2022-12-04T19:07:59.690Z,25.93
2022-12-04T19:10:27.539Z,21.13
2022-12-04T19:12:55.447Z,21.87
2022-12-04T19:15:24.240Z,21.33
2022-12-04T19:17:51.943Z,22.33
2022-12-04T19:20:19.468Z,20.40
2022-12-04T19:22:47.042Z,25.80
2022-12-04T19:25:14.566Z,21.70
2022-12-04T19:27:42.092Z,21.83
2022-12-04T19:30:09.793Z,25.03
2022-12-04T19:32:37.319Z,24.13
2022-12-04T19:35:05.660Z,19.23
2022-12-04T19:37:35.846Z,22.60
2022-12-04T19:40:00.753Z,21.90
2022-12-04T19:42:28.275Z,23.92
2022-12-04T19:44:56.607Z,24.80
2022-12-04T19:47:24.171Z,19.00
2022-12-04T19:49:51.665Z,21.67
2022-12-04T19:52:20.604Z,18.37
2022-12-04T19:54:48.125Z,18.27
2022-12-04T19:57:16.425Z,21.97
2022-12-04T19:59:46.500Z,18.23
2022-12-04T20:02:11.532Z,19.80
2022-12-04T20:04:39.034Z,19.00
2022-12-04T20:07:06.595Z,20.57
2022-12-04T20:09:34.130Z,20.13
2022-12-04T20:12:01.655Z,20.67
2022-12-04T20:14:29.989Z,17.80
2022-12-04T20:16:57.598Z,24.23
2022-12-04T20:19:25.057Z,23.45
2022-12-04T20:21:57.656Z,22.35
2022-12-04T20:24:20.155Z,20.13
2022-12-04T20:26:48.457Z,22.67
2022-12-04T20:29:16.304Z,20.97
2022-12-04T20:31:44.591Z,19.43
2022-12-04T20:34:12.891Z,21.07
2022-12-04T20:36:40.467Z,20.77
2022-12-04T20:39:07.994Z,18.80
2022-12-04T20:41:35.518Z,17.33
2022-12-04T20:44:03.121Z,17.00
2022-12-04T20:46:33.367Z,18.10
2022-12-04T20:49:01.616Z,21.33
2022-12-04T20:51:30.323Z,17.23
2022-12-04T20:54:00.768Z,21.13
2022-12-04T20:56:28.291Z,22.67
2022-12-04T20:58:58.585Z,21.07
2022-12-04T21:01:27.005Z,19.80
2022-12-04T21:03:54.399Z,22.93
2022-12-04T21:06:29.607Z,19.37
2022-12-04T21:08:58.155Z,25.05
2022-12-04T21:11:25.688Z,25.43
2022-12-04T21:14:11.642Z,18.90
2022-12-04T21:16:39.172Z,20.90
2022-12-04T21:19:06.698Z,18.60
2022-12-04T21:21:35.050Z,18.40
2022-12-04T21:24:02.601Z,19.90
2022-12-04T21:26:30.138Z,19.70
2022-12-04T21:29:00.418Z,18.50
2022-12-04T21:31:28.812Z,17.97
2022-12-04T21:33:57.002Z,19.67
2022-12-04T21:36:24.567Z,18.50
2022-12-04T21:38:52.100Z,19.50
2022-12-04T21:41:38.421Z,19.00
2022-12-04T21:44:05.947Z,16.30
2022-12-04T21:46:34.357Z,16.57
2022-12-04T21:49:02.576Z,17.67
2022-12-04T21:51:55.695Z,17.23
2022-12-04T21:53:57.631Z,16.83
2022-12-04T21:56:25.203Z,19.07
2022-12-04T21:58:52.728Z,17.03
2022-12-04T22:01:20.275Z,18.97
2022-12-04T22:03:47.816Z,19.93
2022-12-04T22:06:15.351Z,18.77
2022-12-04T22:08:42.885Z,16.73
2022-12-04T22:11:11.593Z,18.60
2022-12-04T22:13:39.123Z,19.83
2022-12-04T22:16:07.481Z,14.20
2022-12-04T22:18:34.990Z,15.30
2022-12-04T22:21:05.513Z,15.40
2022-12-04T22:23:33.039Z,16.53
2022-12-04T22:26:10.382Z,15.27
2022-12-04T22:28:37.990Z,17.10
2022-12-04T22:31:05.534Z,16.47
2022-12-04T22:33:33.039Z,13.83
2022-12-04T22:36:09.308Z,16.20
2022-12-04T22:38:52.644Z,19.08
2022-12-04T22:41:05.192Z,15.23
2022-12-04T22:43:39.256Z,19.47
2022-12-04T22:46:00.241Z,19.17
2022-12-04T22:48:30.463Z,17.63
2022-12-04T22:51:00.961Z,15.63
2022-12-04T22:53:28.484Z,17.30
2022-12-04T22:55:56.068Z,17.13
2022-12-04T22:58:23.593Z,15.00
2022-12-04T23:00:51.119Z,17.37
2022-12-04T23:03:19.504Z,17.63
2022-12-04T23:05:46.985Z,16.67
2022-12-04T23:08:14.617Z,19.62
2022-12-04T23:10:42.105Z,16.73
2022-12-04T23:13:09.628Z,16.50
2022-12-04T23:15:40.850Z,18.50
2022-12-04T23:18:08.882Z,13.73
2022-12-04T23:20:36.426Z,18.20
2022-12-04T23:23:03.972Z,15.63
2022-12-04T23:25:31.535Z,15.63
2022-12-04T23:27:59.082Z,15.57
2022-12-04T23:30:30.526Z,13.57
2022-12-04T23:32:55.874Z,14.67
2022-12-04T23:35:23.397Z,13.17
2022-12-04T23:37:51.684Z,11.50
2022-12-04T23:40:19.254Z,14.97
2022-12-04T23:42:46.790Z,14.53
2022-12-04T23:45:15.072Z,14.57
2022-12-04T23:47:43.405Z,12.03
2022-12-04T23:50:10.988Z,14.80
2022-12-04T23:52:38.504Z,15.27
2022-12-04T23:55:06.442Z,15.40
2022-12-04T23:57:33.977Z,15.13
